sensor_id;sensor_type;location;lat;lon;timestamp;temperature;humidity
3416;DHT22;1721;51.238;9.562;2022-10-16T00:01:11;17.70;99.90
3416;DHT22;1721;51.238;9.562;2022-10-16T00:03:38;17.80;99.90
3416;DHT22;1721;51.238;9.562;2022-10-16T00:06:04;17.90;99.90
3416;DHT22;1721;51.238;9.562;2022-10-16T00:08:30;18.00;99.90
3416;DHT22;1721;51.238;9.562;2022-10-16T00:11:19;18.00;99.90
3416;DHT22;1721;51.238;9.562;2022-10-16T00:13:46;17.80;99.90
3416;DHT22;1721;51.238;9.562;2022-10-16T00:16:13;17.80;99.90
3416;DHT22;1721;51.238;9.562;2022-10-16T00:18:39;17.80;99.90
3416;DHT22;1721;51.238;9.562;2022-10-16T00:21:26;17.60;99.90
3416;DHT22;1721;51.238;9.562;2022-10-16T00:23:55;17.80;99.90
3416;DHT22;1721;51.238;9.562;2022-10-16T00:26:21;17.70;99.90
3416;DHT22;1721;51.238;9.562;2022-10-16T00:28:48;17.90;99.90
3416;DHT22;1721;51.238;9.562;2022-10-16T00:31:15;18.00;99.90
3416;DHT22;1721;51.238;9.562;2022-10-16T00:33:41;18.10;99.90
3416;DHT22;1721;51.238;9.562;2022-10-16T00:36:09;18.10;99.90
3416;DHT22;1721;51.238;9.562;2022-10-16T00:38:35;18.10;99.90
3416;DHT22;1721;51.238;9.562;2022-10-16T00:41:03;18.00;99.90
3416;DHT22;1721;51.238;9.562;2022-10-16T00:46:00;17.90;99.90
3416;DHT22;1721;51.238;9.562;2022-10-16T00:48:26;17.90;99.90
3416;DHT22;1721;51.238;9.562;2022-10-16T00:50:52;18.00;99.90
3416;DHT22;1721;51.238;9.562;2022-10-16T00:53:18;18.00;99.90
3416;DHT22;1721;51.238;9.562;2022-10-16T00:55:44;18.00;99.90
3416;DHT22;1721;51.238;9.562;2022-10-16T00:58:11;17.90;99.90
3416;DHT22;1721;51.238;9.562;2022-10-16T01:00:36;17.90;99.90
3416;DHT22;1721;51.238;9.562;2022-10-16T01:03:21;18.00;99.90
3416;DHT22;1721;51.238;9.562;2022-10-16T01:05:58;18.00;99.90
3416;DHT22;1721;51.238;9.562;2022-10-16T01:08:33;18.20;99.90
3416;DHT22;1721;51.238;9.562;2022-10-16T01:11:13;17.90;99.90
3416;DHT22;1721;51.238;9.562;2022-10-16T01:13:46;18.00;99.90
3416;DHT22;1721;51.238;9.562;2022-10-16T01:16:28;17.90;99.90
3416;DHT22;1721;51.238;9.562;2022-10-16T01:19:12;17.90;99.90
3416;DHT22;1721;51.238;9.562;2022-10-16T01:21:44;17.80;99.90
3416;DHT22;1721;51.238;9.562;2022-10-16T01:24:15;17.60;99.90
3416;DHT22;1721;51.238;9.562;2022-10-16T01:29:13;17.40;99.90
3416;DHT22;1721;51.238;9.562;2022-10-16T01:31:43;17.50;99.90
3416;DHT22;1721;51.238;9.562;2022-10-16T01:34:16;17.50;99.90
3416;DHT22;1721;51.238;9.562;2022-10-16T01:36:55;17.30;99.90
3416;DHT22;1721;51.238;9.562;2022-10-16T01:39:34;17.20;99.90
3416;DHT22;1721;51.238;9.562;2022-10-16T01:42:15;17.10;99.90
3416;DHT22;1721;51.238;9.562;2022-10-16T01:44:43;17.00;99.90
3416;DHT22;1721;51.238;9.562;2022-10-16T01:47:13;17.10;99.90
3416;DHT22;1721;51.238;9.562;2022-10-16T01:49:41;17.10;99.90
3416;DHT22;1721;51.238;9.562;2022-10-16T01:52:13;17.10;99.90
3416;DHT22;1721;51.238;9.562;2022-10-16T01:54:41;17.00;99.90
3416;DHT22;1721;51.238;9.562;2022-10-16T01:57:09;17.00;99.90
3416;DHT22;1721;51.238;9.562;2022-10-16T01:59:39;17.00;99.90
3416;DHT22;1721;51.238;9.562;2022-10-16T02:02:08;17.00;99.90
3416;DHT22;1721;51.238;9.562;2022-10-16T02:04:42;16.80;99.90
3416;DHT22;1721;51.238;9.562;2022-10-16T02:07:09;16.50;99.90
3416;DHT22;1721;51.238;9.562;2022-10-16T02:09:35;16.60;99.90
3416;DHT22;1721;51.238;9.562;2022-10-16T02:12:07;16.50;99.90
3416;DHT22;1721;51.238;9.562;2022-10-16T02:14:34;16.50;99.90
3416;DHT22;1721;51.238;9.562;2022-10-16T02:17:11;16.50;99.90
3416;DHT22;1721;51.238;9.562;2022-10-16T02:19:37;16.60;99.90
3416;DHT22;1721;51.238;9.562;2022-10-16T02:22:07;16.40;99.90
3416;DHT22;1721;51.238;9.562;2022-10-16T02:27:07;16.40;99.90
3416;DHT22;1721;51.238;9.562;2022-10-16T02:29:40;16.60;99.90
3416;DHT22;1721;51.238;9.562;2022-10-16T02:32:11;16.50;99.90
3416;DHT22;1721;51.238;9.562;2022-10-16T02:34:39;16.60;99.90
3416;DHT22;1721;51.238;9.562;2022-10-16T02:37:06;16.80;99.90
3416;DHT22;1721;51.238;9.562;2022-10-16T02:39:32;16.60;99.90
3416;DHT22;1721;51.238;9.562;2022-10-16T02:41:58;16.60;99.90
3416;DHT22;1721;51.238;9.562;2022-10-16T02:44:23;16.40;99.90
3416;DHT22;1721;51.238;9.562;2022-10-16T02:46:49;16.40;99.90
3416;DHT22;1721;51.238;9.562;2022-10-16T02:49:15;16.40;99.90
3416;DHT22;1721;51.238;9.562;2022-10-16T02:51:40;16.60;99.90
3416;DHT22;1721;51.238;9.562;2022-10-16T02:54:06;16.60;99.90
3416;DHT22;1721;51.238;9.562;2022-10-16T02:56:31;16.40;99.90
3416;DHT22;1721;51.238;9.562;2022-10-16T02:58:57;16.40;99.90
3416;DHT22;1721;51.238;9.562;2022-10-16T03:01:23;16.50;99.90
3416;DHT22;1721;51.238;9.562;2022-10-16T03:03:49;16.40;99.90
3416;DHT22;1721;51.238;9.562;2022-10-16T03:06:14;16.40;99.90
3416;DHT22;1721;51.238;9.562;2022-10-16T03:08:40;16.20;99.90
3416;DHT22;1721;51.238;9.562;2022-10-16T03:11:06;16.30;99.90
3416;DHT22;1721;51.238;9.562;2022-10-16T03:13:31;16.40;99.90
3416;DHT22;1721;51.238;9.562;2022-10-16T03:15:57;16.50;99.90
3416;DHT22;1721;51.238;9.562;2022-10-16T03:18:23;16.20;99.90
3416;DHT22;1721;51.238;9.562;2022-10-16T03:20:49;16.40;99.90
3416;DHT22;1721;51.238;9.562;2022-10-16T03:23:14;16.30;99.90
3416;DHT22;1721;51.238;9.562;2022-10-16T03:25:40;16.20;99.90
3416;DHT22;1721;51.238;9.562;2022-10-16T03:28:06;16.00;99.90
3416;DHT22;1721;51.238;9.562;2022-10-16T03:30:31;15.80;99.90
3416;DHT22;1721;51.238;9.562;2022-10-16T03:32:57;15.80;99.90
3416;DHT22;1721;51.238;9.562;2022-10-16T03:35:24;15.90;99.90
3416;DHT22;1721;51.238;9.562;2022-10-16T03:37:50;16.00;99.90
3416;DHT22;1721;51.238;9.562;2022-10-16T03:40:16;16.00;99.90
3416;DHT22;1721;51.238;9.562;2022-10-16T03:42:42;16.10;99.90
3416;DHT22;1721;51.238;9.562;2022-10-16T03:45:09;16.20;99.90
3416;DHT22;1721;51.238;9.562;2022-10-16T03:47:34;16.00;99.90
3416;DHT22;1721;51.238;9.562;2022-10-16T03:50:00;15.90;99.90
3416;DHT22;1721;51.238;9.562;2022-10-16T03:52:26;16.00;99.90
3416;DHT22;1721;51.238;9.562;2022-10-16T03:54:51;16.20;99.90
3416;DHT22;1721;51.238;9.562;2022-10-16T03:57:17;16.10;99.90
3416;DHT22;1721;51.238;9.562;2022-10-16T03:59:43;16.20;99.90
3416;DHT22;1721;51.238;9.562;2022-10-16T04:02:09;16.20;99.90
3416;DHT22;1721;51.238;9.562;2022-10-16T04:04:34;16.10;99.90
3416;DHT22;1721;51.238;9.562;2022-10-16T04:07:00;16.10;99.90
3416;DHT22;1721;51.238;9.562;2022-10-16T04:09:26;16.10;99.90
3416;DHT22;1721;51.238;9.562;2022-10-16T04:11:51;16.10;99.90
3416;DHT22;1721;51.238;9.562;2022-10-16T04:14:17;16.00;99.90
3416;DHT22;1721;51.238;9.562;2022-10-16T04:16:42;16.00;99.90
3416;DHT22;1721;51.238;9.562;2022-10-16T04:19:09;16.10;99.90
3416;DHT22;1721;51.238;9.562;2022-10-16T04:21:35;15.90;99.90
3416;DHT22;1721;51.238;9.562;2022-10-16T04:24:01;15.90;99.90
3416;DHT22;1721;51.238;9.562;2022-10-16T04:26:27;16.00;99.90
3416;DHT22;1721;51.238;9.562;2022-10-16T04:28:52;16.20;99.90
3416;DHT22;1721;51.238;9.562;2022-10-16T04:31:18;16.20;99.90
3416;DHT22;1721;51.238;9.562;2022-10-16T04:33:44;16.20;99.90
3416;DHT22;1721;51.238;9.562;2022-10-16T04:36:09;16.00;99.90
3416;DHT22;1721;51.238;9.562;2022-10-16T04:38:35;16.00;99.90
3416;DHT22;1721;51.238;9.562;2022-10-16T04:41:03;15.80;99.90
3416;DHT22;1721;51.238;9.562;2022-10-16T04:43:29;15.80;99.90
3416;DHT22;1721;51.238;9.562;2022-10-16T04:45:54;15.70;99.90
3416;DHT22;1721;51.238;9.562;2022-10-16T04:48:20;15.70;99.90
3416;DHT22;1721;51.238;9.562;2022-10-16T04:50:46;15.60;99.90
3416;DHT22;1721;51.238;9.562;2022-10-16T04:53:12;15.70;99.90
3416;DHT22;1721;51.238;9.562;2022-10-16T04:55:37;15.80;99.90
3416;DHT22;1721;51.238;9.562;2022-10-16T04:58:03;15.80;99.90
3416;DHT22;1721;51.238;9.562;2022-10-16T05:00:29;15.60;99.90
3416;DHT22;1721;51.238;9.562;2022-10-16T05:02:55;15.60;99.90
3416;DHT22;1721;51.238;9.562;2022-10-16T05:05:20;15.60;99.90
3416;DHT22;1721;51.238;9.562;2022-10-16T05:07:47;15.50;99.90
3416;DHT22;1721;51.238;9.562;2022-10-16T05:10:12;15.60;99.90
3416;DHT22;1721;51.238;9.562;2022-10-16T05:12:38;15.70;99.90
3416;DHT22;1721;51.238;9.562;2022-10-16T05:15:04;15.50;99.90
3416;DHT22;1721;51.238;9.562;2022-10-16T05:17:30;15.60;99.90
3416;DHT22;1721;51.238;9.562;2022-10-16T05:19:55;15.60;99.90
3416;DHT22;1721;51.238;9.562;2022-10-16T05:22:21;15.60;99.90
3416;DHT22;1721;51.238;9.562;2022-10-16T05:24:47;15.70;99.90
3416;DHT22;1721;51.238;9.562;2022-10-16T05:27:12;15.80;99.90
3416;DHT22;1721;51.238;9.562;2022-10-16T05:29:47;15.90;99.90
3416;DHT22;1721;51.238;9.562;2022-10-16T05:32:14;15.90;99.90
3416;DHT22;1721;51.238;9.562;2022-10-16T05:34:40;16.20;99.90
3416;DHT22;1721;51.238;9.562;2022-10-16T05:37:06;15.80;99.90
3416;DHT22;1721;51.238;9.562;2022-10-16T05:39:31;15.70;99.90
3416;DHT22;1721;51.238;9.562;2022-10-16T05:41:57;15.90;99.90
3416;DHT22;1721;51.238;9.562;2022-10-16T05:44:22;15.90;99.90
3416;DHT22;1721;51.238;9.562;2022-10-16T05:46:48;16.00;99.90
3416;DHT22;1721;51.238;9.562;2022-10-16T05:49:14;15.80;99.90
3416;DHT22;1721;51.238;9.562;2022-10-16T05:51:39;15.90;99.90
3416;DHT22;1721;51.238;9.562;2022-10-16T05:54:06;16.00;99.90
3416;DHT22;1721;51.238;9.562;2022-10-16T05:56:32;16.00;99.90
3416;DHT22;1721;51.238;9.562;2022-10-16T05:58:57;16.10;99.90
3416;DHT22;1721;51.238;9.562;2022-10-16T06:01:23;16.00;99.90
3416;DHT22;1721;51.238;9.562;2022-10-16T06:03:51;15.90;99.90
3416;DHT22;1721;51.238;9.562;2022-10-16T06:06:19;16.10;99.90
3416;DHT22;1721;51.238;9.562;2022-10-16T06:08:46;16.10;99.90
3416;DHT22;1721;51.238;9.562;2022-10-16T06:11:15;16.30;99.90
3416;DHT22;1721;51.238;9.562;2022-10-16T06:13:41;16.20;99.90
3416;DHT22;1721;51.238;9.562;2022-10-16T06:16:09;16.40;99.90
3416;DHT22;1721;51.238;9.562;2022-10-16T06:18:35;16.50;99.90
3416;DHT22;1721;51.238;9.562;2022-10-16T06:21:28;16.30;99.90
3416;DHT22;1721;51.238;9.562;2022-10-16T06:23:53;16.40;99.90
3416;DHT22;1721;51.238;9.562;2022-10-16T06:26:21;16.50;99.90
3416;DHT22;1721;51.238;9.562;2022-10-16T06:28:47;16.30;99.90
3416;DHT22;1721;51.238;9.562;2022-10-16T06:31:13;16.40;99.90
3416;DHT22;1721;51.238;9.562;2022-10-16T06:33:39;16.50;99.90
3416;DHT22;1721;51.238;9.562;2022-10-16T06:36:07;16.70;99.90
3416;DHT22;1721;51.238;9.562;2022-10-16T06:38:34;16.80;99.90
3416;DHT22;1721;51.238;9.562;2022-10-16T06:41:00;16.90;99.90
3416;DHT22;1721;51.238;9.562;2022-10-16T06:43:26;16.70;99.90
3416;DHT22;1721;51.238;9.562;2022-10-16T06:45:54;16.90;99.90
3416;DHT22;1721;51.238;9.562;2022-10-16T06:48:20;17.10;99.90
3416;DHT22;1721;51.238;9.562;2022-10-16T06:51:05;17.00;99.90
3416;DHT22;1721;51.238;9.562;2022-10-16T06:53:33;17.00;99.90
3416;DHT22;1721;51.238;9.562;2022-10-16T06:56:07;16.90;99.90
3416;DHT22;1721;51.238;9.562;2022-10-16T06:58:33;16.90;99.90
3416;DHT22;1721;51.238;9.562;2022-10-16T07:00:59;16.80;99.90
3416;DHT22;1721;51.238;9.562;2022-10-16T07:03:25;16.80;99.90
3416;DHT22;1721;51.238;9.562;2022-10-16T07:05:50;16.80;99.70
3416;DHT22;1721;51.238;9.562;2022-10-16T07:08:16;16.80;99.70
3416;DHT22;1721;51.238;9.562;2022-10-16T07:10:41;16.60;99.90
3416;DHT22;1721;51.238;9.562;2022-10-16T07:13:07;16.50;99.90
3416;DHT22;1721;51.238;9.562;2022-10-16T07:15:33;16.40;99.90
3416;DHT22;1721;51.238;9.562;2022-10-16T07:17:59;16.60;99.90
3416;DHT22;1721;51.238;9.562;2022-10-16T07:20:25;16.70;99.70
3416;DHT22;1721;51.238;9.562;2022-10-16T07:22:50;16.70;99.50
3416;DHT22;1721;51.238;9.562;2022-10-16T07:25:16;16.40;99.40
3416;DHT22;1721;51.238;9.562;2022-10-16T07:27:42;16.50;99.50
3416;DHT22;1721;51.238;9.562;2022-10-16T07:30:08;16.50;99.50
3416;DHT22;1721;51.238;9.562;2022-10-16T07:32:34;16.40;99.50
3416;DHT22;1721;51.238;9.562;2022-10-16T07:34:59;16.20;99.90
3416;DHT22;1721;51.238;9.562;2022-10-16T07:37:25;16.40;99.90
3416;DHT22;1721;51.238;9.562;2022-10-16T07:39:50;16.50;99.40
3416;DHT22;1721;51.238;9.562;2022-10-16T07:42:16;16.50;99.70
3416;DHT22;1721;51.238;9.562;2022-10-16T07:44:41;16.70;99.50
3416;DHT22;1721;51.238;9.562;2022-10-16T07:47:07;16.50;98.80
3416;DHT22;1721;51.238;9.562;2022-10-16T07:49:33;16.50;99.00
3416;DHT22;1721;51.238;9.562;2022-10-16T07:51:58;16.60;99.00
3416;DHT22;1721;51.238;9.562;2022-10-16T07:54:24;16.60;98.60
3416;DHT22;1721;51.238;9.562;2022-10-16T07:56:49;16.50;98.90
3416;DHT22;1721;51.238;9.562;2022-10-16T07:59:15;16.60;98.60
3416;DHT22;1721;51.238;9.562;2022-10-16T08:01:40;16.90;98.60
3416;DHT22;1721;51.238;9.562;2022-10-16T08:04:08;17.00;98.10
3416;DHT22;1721;51.238;9.562;2022-10-16T08:06:39;16.80;98.10
3416;DHT22;1721;51.238;9.562;2022-10-16T08:09:06;16.90;98.30
3416;DHT22;1721;51.238;9.562;2022-10-16T08:11:32;16.80;97.90
3416;DHT22;1721;51.238;9.562;2022-10-16T08:13:58;16.80;98.30
3416;DHT22;1721;51.238;9.562;2022-10-16T08:16:23;16.90;98.10
3416;DHT22;1721;51.238;9.562;2022-10-16T08:18:49;17.10;98.20
3416;DHT22;1721;51.238;9.562;2022-10-16T08:21:18;17.10;98.20
3416;DHT22;1721;51.238;9.562;2022-10-16T08:23:44;17.30;98.10
3416;DHT22;1721;51.238;9.562;2022-10-16T08:26:10;17.40;97.70
3416;DHT22;1721;51.238;9.562;2022-10-16T08:28:36;17.50;97.60
3416;DHT22;1721;51.238;9.562;2022-10-16T08:31:10;17.40;98.00
3416;DHT22;1721;51.238;9.562;2022-10-16T08:33:37;17.60;98.10
3416;DHT22;1721;51.238;9.562;2022-10-16T08:36:04;17.90;97.90
3416;DHT22;1721;51.238;9.562;2022-10-16T08:38:30;18.10;97.80
3416;DHT22;1721;51.238;9.562;2022-10-16T08:43:39;18.40;97.40
3416;DHT22;1721;51.238;9.562;2022-10-16T08:46:27;18.40;97.30
3416;DHT22;1721;51.238;9.562;2022-10-16T08:48:58;18.40;97.30
3416;DHT22;1721;51.238;9.562;2022-10-16T08:51:27;18.60;97.20
3416;DHT22;1721;51.238;9.562;2022-10-16T08:54:05;18.60;97.40
3416;DHT22;1721;51.238;9.562;2022-10-16T08:56:34;18.50;97.10
3416;DHT22;1721;51.238;9.562;2022-10-16T08:58:59;18.50;97.00
3416;DHT22;1721;51.238;9.562;2022-10-16T09:01:41;18.50;97.20
3416;DHT22;1721;51.238;9.562;2022-10-16T09:04:39;18.60;97.10
3416;DHT22;1721;51.238;9.562;2022-10-16T09:16:19;18.80;97.20
3416;DHT22;1721;51.238;9.562;2022-10-16T09:18:54;19.00;97.00
3416;DHT22;1721;51.238;9.562;2022-10-16T09:21:31;18.90;96.90
3416;DHT22;1721;51.238;9.562;2022-10-16T09:24:14;18.90;97.00
3416;DHT22;1721;51.238;9.562;2022-10-16T09:26:41;18.90;96.90
3416;DHT22;1721;51.238;9.562;2022-10-16T09:29:15;18.80;97.20
3416;DHT22;1721;51.238;9.562;2022-10-16T09:31:42;19.00;97.40
3416;DHT22;1721;51.238;9.562;2022-10-16T09:36:45;19.40;96.90
3416;DHT22;1721;51.238;9.562;2022-10-16T09:39:12;19.50;96.50
3416;DHT22;1721;51.238;9.562;2022-10-16T09:41:39;19.40;96.10
3416;DHT22;1721;51.238;9.562;2022-10-16T09:44:24;19.20;96.20
3416;DHT22;1721;51.238;9.562;2022-10-16T09:47:02;19.00;96.50
3416;DHT22;1721;51.238;9.562;2022-10-16T09:49:28;19.00;96.60
3416;DHT22;1721;51.238;9.562;2022-10-16T09:52:10;19.10;96.40
3416;DHT22;1721;51.238;9.562;2022-10-16T09:54:36;19.10;96.20
3416;DHT22;1721;51.238;9.562;2022-10-16T09:57:06;19.00;96.30
3416;DHT22;1721;51.238;9.562;2022-10-16T09:59:32;18.80;96.30
3416;DHT22;1721;51.238;9.562;2022-10-16T10:02:02;18.90;96.60
3416;DHT22;1721;51.238;9.562;2022-10-16T10:04:41;19.10;96.60
3416;DHT22;1721;51.238;9.562;2022-10-16T10:07:26;18.80;96.60
3416;DHT22;1721;51.238;9.562;2022-10-16T10:09:52;18.80;97.00
3416;DHT22;1721;51.238;9.562;2022-10-16T10:12:26;18.80;96.90
3416;DHT22;1721;51.238;9.562;2022-10-16T10:14:56;18.90;96.80
3416;DHT22;1721;51.238;9.562;2022-10-16T10:17:25;18.90;96.40
3416;DHT22;1721;51.238;9.562;2022-10-16T10:19:57;18.90;96.30
3416;DHT22;1721;51.238;9.562;2022-10-16T10:22:29;18.80;96.20
3416;DHT22;1721;51.238;9.562;2022-10-16T10:28:07;19.30;96.60
3416;DHT22;1721;51.238;9.562;2022-10-16T10:33:38;19.50;95.60
3416;DHT22;1721;51.238;9.562;2022-10-16T10:38:45;19.50;95.40
3416;DHT22;1721;51.238;9.562;2022-10-16T10:55:31;19.60;94.80
3416;DHT22;1721;51.238;9.562;2022-10-16T11:00:54;19.90;94.50
3416;DHT22;1721;51.238;9.562;2022-10-16T11:03:35;19.70;94.90
3416;DHT22;1721;51.238;9.562;2022-10-16T11:09:15;19.60;94.70
3416;DHT22;1721;51.238;9.562;2022-10-16T11:11:53;19.40;94.70
3416;DHT22;1721;51.238;9.562;2022-10-16T11:14:23;19.50;94.50
3416;DHT22;1721;51.238;9.562;2022-10-16T11:16:56;19.10;94.00
3416;DHT22;1721;51.238;9.562;2022-10-16T11:19:50;19.10;94.30
3416;DHT22;1721;51.238;9.562;2022-10-16T11:22:32;19.00;94.00
3416;DHT22;1721;51.238;9.562;2022-10-16T11:25:04;19.10;94.30
3416;DHT22;1721;51.238;9.562;2022-10-16T11:27:41;19.00;94.10
3416;DHT22;1721;51.238;9.562;2022-10-16T11:30:20;18.90;94.20
3416;DHT22;1721;51.238;9.562;2022-10-16T11:35:41;18.80;94.70
3416;DHT22;1721;51.238;9.562;2022-10-16T11:44:38;18.70;94.50
3416;DHT22;1721;51.238;9.562;2022-10-16T11:47:26;18.80;94.60
3416;DHT22;1721;51.238;9.562;2022-10-16T11:50:01;18.90;94.50
3416;DHT22;1721;51.238;9.562;2022-10-16T11:55:02;18.80;94.50
3416;DHT22;1721;51.238;9.562;2022-10-16T11:57:33;18.90;94.80
3416;DHT22;1721;51.238;9.562;2022-10-16T12:00:20;18.90;94.80
3416;DHT22;1721;51.238;9.562;2022-10-16T12:05:52;18.80;94.80
3416;DHT22;1721;51.238;9.562;2022-10-16T12:08:20;18.70;94.90
3416;DHT22;1721;51.238;9.562;2022-10-16T12:10:49;18.80;95.10
3416;DHT22;1721;51.238;9.562;2022-10-16T12:13:34;19.00;94.70
3416;DHT22;1721;51.238;9.562;2022-10-16T12:16:05;19.20;94.30
3416;DHT22;1721;51.238;9.562;2022-10-16T12:18:30;19.40;94.20
3416;DHT22;1721;51.238;9.562;2022-10-16T12:20:59;19.70;93.80
3416;DHT22;1721;51.238;9.562;2022-10-16T12:23:30;19.90;93.60
3416;DHT22;1721;51.238;9.562;2022-10-16T12:26:01;20.10;93.00
3416;DHT22;1721;51.238;9.562;2022-10-16T12:28:29;20.10;92.90
3416;DHT22;1721;51.238;9.562;2022-10-16T12:31:01;20.00;92.80
3416;DHT22;1721;51.238;9.562;2022-10-16T12:33:29;20.10;93.00
3416;DHT22;1721;51.238;9.562;2022-10-16T12:35:57;19.90;92.40
3416;DHT22;1721;51.238;9.562;2022-10-16T12:38:45;19.90;92.70
3416;DHT22;1721;51.238;9.562;2022-10-16T12:41:12;19.70;92.50
3416;DHT22;1721;51.238;9.562;2022-10-16T12:43:47;19.60;92.60
3416;DHT22;1721;51.238;9.562;2022-10-16T12:48:40;19.40;93.60
3416;DHT22;1721;51.238;9.562;2022-10-16T12:54:02;19.30;92.90
3416;DHT22;1721;51.238;9.562;2022-10-16T12:56:40;19.30;92.80
3416;DHT22;1721;51.238;9.562;2022-10-16T13:02:07;19.00;93.50
3416;DHT22;1721;51.238;9.562;2022-10-16T13:04:51;19.20;93.20
3416;DHT22;1721;51.238;9.562;2022-10-16T13:09:57;19.20;93.40
3416;DHT22;1721;51.238;9.562;2022-10-16T13:15:51;19.60;93.30
3416;DHT22;1721;51.238;9.562;2022-10-16T13:18:38;19.60;92.60
3416;DHT22;1721;51.238;9.562;2022-10-16T13:23:53;19.90;92.30
3416;DHT22;1721;51.238;9.562;2022-10-16T13:26:23;19.80;92.60
3416;DHT22;1721;51.238;9.562;2022-10-16T13:28:51;19.70;91.90
3416;DHT22;1721;51.238;9.562;2022-10-16T13:31:22;19.20;92.20
3416;DHT22;1721;51.238;9.562;2022-10-16T13:33:55;19.10;92.40
3416;DHT22;1721;51.238;9.562;2022-10-16T13:36:23;19.00;92.60
3416;DHT22;1721;51.238;9.562;2022-10-16T13:41:43;19.10;93.30
3416;DHT22;1721;51.238;9.562;2022-10-16T13:44:18;19.20;92.90
3416;DHT22;1721;51.238;9.562;2022-10-16T13:46:44;19.20;92.80
3416;DHT22;1721;51.238;9.562;2022-10-16T13:49:17;19.10;92.80
3416;DHT22;1721;51.238;9.562;2022-10-16T13:51:59;19.00;92.30
3416;DHT22;1721;51.238;9.562;2022-10-16T13:54:27;19.10;92.70
3416;DHT22;1721;51.238;9.562;2022-10-16T13:56:54;19.00;92.30
3416;DHT22;1721;51.238;9.562;2022-10-16T13:59:32;19.10;93.00
3416;DHT22;1721;51.238;9.562;2022-10-16T14:01:58;19.10;92.30
3416;DHT22;1721;51.238;9.562;2022-10-16T14:04:27;19.00;92.30
3416;DHT22;1721;51.238;9.562;2022-10-16T14:06:56;19.10;92.50
3416;DHT22;1721;51.238;9.562;2022-10-16T14:09:23;19.20;92.50
3416;DHT22;1721;51.238;9.562;2022-10-16T14:11:53;19.20;92.30
3416;DHT22;1721;51.238;9.562;2022-10-16T14:14:19;19.30;92.20
3416;DHT22;1721;51.238;9.562;2022-10-16T14:16:45;19.30;92.10
3416;DHT22;1721;51.238;9.562;2022-10-16T14:19:28;19.30;92.20
3416;DHT22;1721;51.238;9.562;2022-10-16T14:21:56;19.50;92.00
3416;DHT22;1721;51.238;9.562;2022-10-16T14:24:31;19.40;92.00
3416;DHT22;1721;51.238;9.562;2022-10-16T14:26:58;19.60;91.90
3416;DHT22;1721;51.238;9.562;2022-10-16T14:29:25;19.50;92.40
3416;DHT22;1721;51.238;9.562;2022-10-16T14:32:05;19.40;92.20
3416;DHT22;1721;51.238;9.562;2022-10-16T14:34:36;19.50;92.20
3416;DHT22;1721;51.238;9.562;2022-10-16T14:37:26;19.50;92.40
3416;DHT22;1721;51.238;9.562;2022-10-16T14:39:53;19.50;92.40
3416;DHT22;1721;51.238;9.562;2022-10-16T14:42:21;19.30;92.20
3416;DHT22;1721;51.238;9.562;2022-10-16T14:44:53;19.20;92.40
3416;DHT22;1721;51.238;9.562;2022-10-16T14:47:22;19.20;92.20
3416;DHT22;1721;51.238;9.562;2022-10-16T14:49:52;19.30;92.10
3416;DHT22;1721;51.238;9.562;2022-10-16T14:52:20;19.10;92.20
3416;DHT22;1721;51.238;9.562;2022-10-16T14:54:48;19.10;92.50
3416;DHT22;1721;51.238;9.562;2022-10-16T14:57:20;19.00;93.00
3416;DHT22;1721;51.238;9.562;2022-10-16T14:59:46;18.90;93.10
3416;DHT22;1721;51.238;9.562;2022-10-16T15:04:41;18.80;92.40
3416;DHT22;1721;51.238;9.562;2022-10-16T15:07:07;18.80;92.60
3416;DHT22;1721;51.238;9.562;2022-10-16T15:09:33;18.90;92.60
3416;DHT22;1721;51.238;9.562;2022-10-16T15:11:58;19.00;92.50
3416;DHT22;1721;51.238;9.562;2022-10-16T15:14:24;19.00;92.40
3416;DHT22;1721;51.238;9.562;2022-10-16T15:16:50;19.20;92.60
3416;DHT22;1721;51.238;9.562;2022-10-16T15:19:15;19.40;92.60
3416;DHT22;1721;51.238;9.562;2022-10-16T15:21:41;19.40;92.50
3416;DHT22;1721;51.238;9.562;2022-10-16T15:24:13;19.50;92.50
3416;DHT22;1721;51.238;9.562;2022-10-16T15:26:40;19.50;92.50
3416;DHT22;1721;51.238;9.562;2022-10-16T15:29:06;19.50;91.90
3416;DHT22;1721;51.238;9.562;2022-10-16T15:31:32;19.50;92.20
3416;DHT22;1721;51.238;9.562;2022-10-16T15:33:58;19.60;92.20
3416;DHT22;1721;51.238;9.562;2022-10-16T15:36:32;19.70;92.10
3416;DHT22;1721;51.238;9.562;2022-10-16T15:39:02;19.70;92.10
3416;DHT22;1721;51.238;9.562;2022-10-16T15:41:27;19.70;92.20
3416;DHT22;1721;51.238;9.562;2022-10-16T15:43:53;19.60;92.30
3416;DHT22;1721;51.238;9.562;2022-10-16T15:46:20;19.70;92.20
3416;DHT22;1721;51.238;9.562;2022-10-16T15:48:47;19.60;92.30
3416;DHT22;1721;51.238;9.562;2022-10-16T15:51:13;19.50;92.40
3416;DHT22;1721;51.238;9.562;2022-10-16T15:53:39;19.50;92.60
3416;DHT22;1721;51.238;9.562;2022-10-16T15:56:07;19.40;92.40
3416;DHT22;1721;51.238;9.562;2022-10-16T15:58:33;19.40;92.60
3416;DHT22;1721;51.238;9.562;2022-10-16T16:01:00;19.30;92.60
3416;DHT22;1721;51.238;9.562;2022-10-16T16:03:27;19.20;92.60
3416;DHT22;1721;51.238;9.562;2022-10-16T16:05:53;19.10;92.90
3416;DHT22;1721;51.238;9.562;2022-10-16T16:08:19;19.00;92.90
3416;DHT22;1721;51.238;9.562;2022-10-16T16:10:44;18.90;92.90
3416;DHT22;1721;51.238;9.562;2022-10-16T16:13:10;18.80;92.90
3416;DHT22;1721;51.238;9.562;2022-10-16T16:15:39;18.60;93.00
3416;DHT22;1721;51.238;9.562;2022-10-16T16:18:04;18.40;93.10
3416;DHT22;1721;51.238;9.562;2022-10-16T16:20:31;18.30;93.20
3416;DHT22;1721;51.238;9.562;2022-10-16T16:22:56;18.20;93.40
3416;DHT22;1721;51.238;9.562;2022-10-16T16:25:22;18.00;93.60
3416;DHT22;1721;51.238;9.562;2022-10-16T16:27:48;17.90;93.70
3416;DHT22;1721;51.238;9.562;2022-10-16T16:30:13;17.70;93.90
3416;DHT22;1721;51.238;9.562;2022-10-16T16:32:39;17.60;94.10
3416;DHT22;1721;51.238;9.562;2022-10-16T16:35:05;17.60;94.30
3416;DHT22;1721;51.238;9.562;2022-10-16T16:37:31;17.50;94.40
3416;DHT22;1721;51.238;9.562;2022-10-16T16:39:57;17.40;94.70
3416;DHT22;1721;51.238;9.562;2022-10-16T16:42:26;17.30;94.80
3416;DHT22;1721;51.238;9.562;2022-10-16T16:44:51;17.30;95.00
3416;DHT22;1721;51.238;9.562;2022-10-16T16:47:17;17.20;95.20
3416;DHT22;1721;51.238;9.562;2022-10-16T16:49:43;17.10;95.20
3416;DHT22;1721;51.238;9.562;2022-10-16T16:52:09;17.00;95.30
3416;DHT22;1721;51.238;9.562;2022-10-16T16:54:34;17.00;95.40
3416;DHT22;1721;51.238;9.562;2022-10-16T16:57:00;17.00;95.40
3416;DHT22;1721;51.238;9.562;2022-10-16T16:59:26;17.00;95.50
3416;DHT22;1721;51.238;9.562;2022-10-16T17:01:51;17.00;95.50
3416;DHT22;1721;51.238;9.562;2022-10-16T17:04:17;16.90;95.60
3416;DHT22;1721;51.238;9.562;2022-10-16T17:06:44;16.80;95.60
3416;DHT22;1721;51.238;9.562;2022-10-16T17:09:11;16.70;95.70
3416;DHT22;1721;51.238;9.562;2022-10-16T17:11:41;16.70;95.80
3416;DHT22;1721;51.238;9.562;2022-10-16T17:14:08;16.70;95.90
3416;DHT22;1721;51.238;9.562;2022-10-16T17:16:37;16.60;95.90
3416;DHT22;1721;51.238;9.562;2022-10-16T17:19:05;16.60;95.80
3416;DHT22;1721;51.238;9.562;2022-10-16T17:21:31;16.60;95.70
3416;DHT22;1721;51.238;9.562;2022-10-16T17:23:58;16.50;95.80
3416;DHT22;1721;51.238;9.562;2022-10-16T17:26:24;16.40;96.10
3416;DHT22;1721;51.238;9.562;2022-10-16T17:28:52;16.40;96.20
3416;DHT22;1721;51.238;9.562;2022-10-16T17:31:21;16.40;96.20
3416;DHT22;1721;51.238;9.562;2022-10-16T17:33:47;16.30;96.20
3416;DHT22;1721;51.238;9.562;2022-10-16T17:36:15;16.30;96.20
3416;DHT22;1721;51.238;9.562;2022-10-16T17:38:41;16.30;96.40
3416;DHT22;1721;51.238;9.562;2022-10-16T17:41:15;16.30;96.60